Time;durP1;ratioP1;P1;durP2;ratioP2;P2;SDS_P1;SDS_P2;PMS_P1;PMS_P2;Temp;Humidity;BMP_temperature;BMP_pressure;BME280_temperature;BME280_humidity;BME280_pressure;Samples;Min_cycle;Max_cycle;Signal;HPM_P1;HPM_P2
2021/12/15 00:00:40;;;;;;;24.73;12.00;;;;;;;-0.61;88.61;101564.69;4422104;32;20140;-72
2021/12/15 00:03:08;;;;;;;21.73;11.43;;;;;;;-0.52;87.30;101554.81;4422034;32;20131;-72
2021/12/15 00:05:36;;;;;;;23.67;10.90;;;;;;;-0.22;85.97;101551.13;4421785;32;20140;-72
2021/12/15 00:08:07;;;;;;;26.17;12.10;;;;;;;-0.51;86.92;101550.53;4422060;32;20081;-72
2021/12/15 00:10:35;;;;;;;23.83;12.27;;;;;;;-0.59;87.73;101546.66;4422248;32;20157;-72
2021/12/15 00:13:02;;;;;;;23.10;12.27;;;;;;;-0.69;87.84;101550.47;4421896;32;20128;-72
2021/12/15 00:15:32;;;;;;;24.83;12.32;;;;;;;-0.68;88.20;101554.84;4421847;32;20116;-72
2021/12/15 00:18:00;;;;;;;23.30;11.95;;;;;;;-0.55;88.57;101546.00;4421867;32;20196;-72
2021/12/15 00:20:28;;;;;;;25.15;13.07;;;;;;;-0.54;87.86;101547.78;4421817;32;20144;-72
2021/12/15 00:22:56;;;;;;;26.10;12.98;;;;;;;-0.46;87.72;101551.66;4421800;32;20381;-72
2021/12/15 00:25:27;;;;;;;29.90;14.07;;;;;;;-0.50;88.69;101539.34;4421715;32;20157;-72
2021/12/15 00:27:55;;;;;;;27.92;13.30;;;;;;;-0.50;88.36;101550.59;4422072;31;20128;-72
2021/12/15 00:30:24;;;;;;;26.20;12.45;;;;;;;-0.57;88.99;101555.37;4421714;31;20094;-72
2021/12/15 00:32:52;;;;;;;28.52;13.02;;;;;;;-0.40;88.20;101548.50;4421640;32;20094;-72
2021/12/15 00:35:20;;;;;;;27.23;13.62;;;;;;;-0.49;88.26;101552.41;4421767;32;20132;-72
2021/12/15 00:37:49;;;;;;;26.37;13.43;;;;;;;-0.80;90.97;101544.72;4421842;32;20089;-72
2021/12/15 00:40:19;;;;;;;24.27;13.18;;;;;;;-0.63;90.32;101553.38;4421697;31;20089;-72
2021/12/15 00:42:47;;;;;;;22.90;12.90;;;;;;;-0.41;88.73;101551.91;4421811;32;20133;-72
2021/12/15 00:45:16;;;;;;;29.65;13.18;;;;;;;-0.34;88.83;101557.47;4421542;32;20491;-72
2021/12/15 00:47:45;;;;;;;25.42;12.68;;;;;;;-0.34;88.72;101561.75;4421529;32;20081;-72
2021/12/15 00:50:15;;;;;;;27.20;12.68;;;;;;;-0.41;89.53;101564.84;4421603;32;20467;-72
2021/12/15 00:52:44;;;;;;;38.45;16.45;;;;;;;-0.28;88.02;101580.22;4421603;32;20233;-72
2021/12/15 00:55:15;;;;;;;35.90;16.15;;;;;;;-0.35;88.89;101578.12;4421449;32;20086;-72
2021/12/15 00:57:42;;;;;;;39.42;17.85;;;;;;;-0.40;89.24;101582.16;4421582;32;20085;-72
2021/12/15 01:00:17;;;;;;;49.47;22.02;;;;;;;-0.43;89.49;101569.94;4421431;32;20093;-72
2021/12/15 01:02:44;;;;;;;57.30;23.55;;;;;;;-0.60;90.61;101575.94;4421555;32;20128;-72
2021/12/15 01:05:14;;;;;;;50.92;22.90;;;;;;;-0.60;90.51;101574.25;4421368;32;20199;-72
2021/12/15 01:07:42;;;;;;;41.67;20.42;;;;;;;-0.50;90.03;101578.19;4421321;31;20166;-72
2021/12/15 01:10:13;;;;;;;37.75;16.60;;;;;;;-0.36;88.86;101579.78;4421357;32;20170;-72
2021/12/15 01:20:43;;;;;;;27.65;14.73;;;;;;;-0.32;88.94;101581.75;4421274;32;20494;-72
2021/12/15 01:23:14;;;;;;;27.42;14.38;;;;;;;-0.20;87.69;101583.19;4421375;32;20112;-72
2021/12/15 01:25:46;;;;;;;27.45;13.73;;;;;;;-0.33;88.70;101579.06;4421093;32;20093;-72
2021/12/15 01:28:14;;;;;;;30.67;15.32;;;;;;;-0.34;89.19;101577.28;4421348;32;20135;-72
2021/12/15 01:30:46;;;;;;;31.65;14.70;;;;;;;-0.23;88.54;101575.25;4421126;32;20113;-72
2021/12/15 01:33:14;;;;;;;29.50;13.07;;;;;;;-0.21;87.82;101571.94;4421480;32;20408;-72
2021/12/15 01:35:44;;;;;;;26.08;12.73;;;;;;;-0.29;88.75;101565.47;4421231;32;20497;-72
2021/12/15 01:38:12;;;;;;;30.00;14.32;;;;;;;-0.32;89.14;101573.06;4421296;32;20101;-72
2021/12/15 01:40:43;;;;;;;41.15;17.48;;;;;;;-0.21;89.01;101571.94;4421062;32;20089;-72
2021/12/15 01:43:33;;;;;;;40.00;17.80;;;;;;;-0.15;89.07;101560.97;4421016;32;20117;-72
2021/12/15 01:49:02;;;;;;;42.47;19.52;;;;;;;-0.18;88.82;101573.78;4421112;32;20468;-72
2021/12/15 01:51:30;;;;;;;40.75;17.67;;;;;;;-0.16;88.90;101572.16;4421056;31;20124;-72
2021/12/15 01:53:59;;;;;;;51.78;19.00;;;;;;;-0.10;88.21;101578.53;4420939;32;20106;-72
2021/12/15 01:56:27;;;;;;;37.92;17.52;;;;;;;-0.25;88.80;101582.94;4420893;32;20085;-72
2021/12/15 01:58:55;;;;;;;47.58;20.10;;;;;;;-0.27;89.27;101581.97;4421261;31;20406;-72
2021/12/15 02:01:24;;;;;;;39.47;18.73;;;;;;;-0.28;89.76;101575.03;4420280;32;20093;-72
2021/12/15 02:03:55;;;;;;;47.00;19.40;;;;;;;-0.34;89.97;101579.88;4406624;32;20136;-72
2021/12/15 02:06:41;;;;;;;46.20;19.75;;;;;;;-0.31;90.17;101582.63;4420836;32;20082;-72
2021/12/15 02:09:10;;;;;;;43.47;18.52;;;;;;;-0.18;89.26;101576.37;4420862;32;20081;-72
2021/12/15 02:11:38;;;;;;;41.90;18.00;;;;;;;-0.23;89.45;101578.72;4420963;32;20098;-72
2021/12/15 02:14:05;;;;;;;43.40;19.10;;;;;;;-0.30;89.84;101576.63;4420804;31;20098;-72
2021/12/15 02:16:34;;;;;;;39.85;18.27;;;;;;;-0.28;89.80;101580.22;4421067;32;20158;-72
2021/12/15 02:19:02;;;;;;;42.67;18.33;;;;;;;-0.17;89.33;101567.81;4420854;32;20097;-72
2021/12/15 02:21:31;;;;;;;41.63;18.25;;;;;;;-0.06;88.61;101566.63;4420684;32;20123;-72
2021/12/15 02:24:00;;;;;;;41.78;18.98;;;;;;;-0.10;88.80;101559.53;4420650;32;20093;-72
2021/12/15 02:26:37;;;;;;;40.67;18.25;;;;;;;-0.11;88.64;101565.50;4420476;32;20077;-72
2021/12/15 02:29:06;;;;;;;;;;;;;;;-0.23;88.85;101558.00;4421051;32;20446;-72
2021/12/15 02:39:32;;;;;;;42.42;17.58;;;;;;;-0.39;89.68;101574.47;4420638;32;20077;-72
2021/12/15 02:42:02;;;;;;;37.75;18.48;;;;;;;-0.25;89.59;101569.97;4420706;32;20164;-72
2021/12/15 02:44:30;;;;;;;41.97;18.48;;;;;;;-0.58;90.72;101569.16;4420674;32;20119;-72
2021/12/15 02:46:57;;;;;;;39.00;17.75;;;;;;;-0.45;90.49;101571.56;4420447;32;20424;-72
2021/12/15 02:49:31;;;;;;;43.63;18.02;;;;;;;-0.23;89.31;101577.84;4420416;31;20089;-72
2021/12/15 02:51:59;;;;;;;38.20;18.52;;;;;;;-0.29;89.07;101579.28;4420381;32;20190;-72
2021/12/15 02:54:27;;;;;;;36.25;17.40;;;;;;;-0.21;88.48;101576.19;4420326;32;20106;-72
2021/12/15 02:56:57;;;;;;;38.08;18.42;;;;;;;-0.27;88.93;101572.50;4420468;32;20112;-72
2021/12/15 02:59:33;;;;;;;41.05;17.48;;;;;;;-0.26;89.18;101573.38;4420483;32;20108;-72
2021/12/15 03:02:09;;;;;;;45.15;17.58;;;;;;;-0.21;88.85;101564.16;4420193;32;20146;-72
2021/12/15 03:07:11;;;;;;;36.00;18.00;;;;;;;-0.40;89.75;101569.22;4420276;32;20432;-72
2021/12/15 03:15:30;;;;;;;37.55;18.58;;;;;;;-0.38;89.84;101554.66;4422832;32;20132;-72
2021/12/15 03:18:02;;;;;;;44.80;18.55;;;;;;;-0.32;89.18;101553.28;4422425;32;20090;-72
2021/12/15 03:20:37;;;;;;;38.63;18.40;;;;;;;-0.32;89.00;101548.09;4422398;32;20137;-72
2021/12/15 03:23:06;;;;;;;38.13;18.55;;;;;;;-0.28;88.83;101549.13;4422660;32;20392;-72
2021/12/15 03:25:33;;;;;;;35.42;18.12;;;;;;;-0.27;88.32;101546.59;4422196;32;20106;-72
2021/12/15 03:36:11;;;;;;;36.97;17.08;;;;;;;-0.37;89.17;101533.12;4422235;32;20124;-72
2021/12/15 03:38:39;;;;;;;42.85;19.30;;;;;;;-0.27;88.79;101530.19;4422250;32;20073;-72
2021/12/15 03:41:09;;;;;;;40.83;19.70;;;;;;;-0.22;87.97;101544.22;4422247;32;20453;-72
2021/12/15 03:43:38;;;;;;;45.92;20.08;;;;;;;-0.28;88.46;101541.38;4422314;32;20123;-72
2021/12/15 03:46:18;;;;;;;54.85;22.58;;;;;;;-0.30;88.96;101537.78;4422065;32;20143;-72
2021/12/15 03:48:48;;;;;;;54.15;21.62;;;;;;;-0.40;89.56;101543.31;4422183;32;20107;-72
2021/12/15 03:51:16;;;;;;;46.72;20.98;;;;;;;-0.14;87.82;101549.78;4422138;31;20386;-72
2021/12/15 03:53:44;;;;;;;42.55;20.15;;;;;;;-0.21;88.06;101548.63;4421875;32;20093;-72
2021/12/15 03:56:14;;;;;;;43.17;20.45;;;;;;;-0.28;88.25;101546.53;4421995;32;20562;-72
2021/12/15 03:58:42;;;;;;;43.05;19.25;;;;;;;-0.29;88.46;101547.34;4422086;32;20500;-72
2021/12/15 04:01:17;;;;;;;40.42;19.10;;;;;;;-0.28;88.55;101555.19;4422037;32;20089;-72
2021/12/15 04:03:48;;;;;;;38.67;18.33;;;;;;;-0.19;87.67;101554.75;4422066;32;20077;-72
2021/12/15 04:06:23;;;;;;;38.65;17.12;;;;;;;-0.06;86.48;101546.78;4421959;32;20097;-72
2021/12/15 04:08:52;;;;;;;39.80;17.75;;;;;;;-0.05;86.56;101547.69;4422166;31;20104;-72
2021/12/15 04:11:22;;;;;;;37.25;18.15;;;;;;;-0.12;87.08;101551.66;4421945;32;20120;-72
2021/12/15 04:13:51;;;;;;;41.72;18.77;;;;;;;-0.30;87.63;101559.41;4422012;32;20085;-72
2021/12/15 04:16:59;;;;;;;43.95;18.55;;;;;;;-0.35;87.90;101562.59;4421956;32;20094;-72
2021/12/15 04:19:17;;;;;;;36.95;18.15;;;;;;;-0.45;88.74;101565.50;4421553;32;20513;-72
2021/12/15 04:21:44;;;;;;;35.00;17.98;;;;;;;-0.50;88.86;101573.00;4421953;32;20074;-72
2021/12/15 04:24:14;;;;;;;38.78;18.17;;;;;;;-0.53;89.62;101573.78;4421372;32;20456;-72
2021/12/15 04:26:43;;;;;;;35.90;16.87;;;;;;;-0.50;89.04;101571.31;4421572;32;20176;-72
2021/12/15 04:29:11;;;;;;;43.45;19.25;;;;;;;-0.56;89.68;101565.84;4421787;32;20086;-72
2021/12/15 04:31:56;;;;;;;46.22;18.83;;;;;;;-0.54;89.71;101563.31;4421777;31;20154;-72
2021/12/15 04:34:23;;;;;;;44.22;17.98;;;;;;;-0.51;89.21;101564.38;4421721;32;20169;-72
2021/12/15 04:36:52;;;;;;;38.47;17.85;;;;;;;-0.55;89.37;101558.97;4421806;32;20110;-72
2021/12/15 04:39:26;;;;;;;41.00;19.15;;;;;;;-0.52;89.41;101574.66;4421629;32;20787;-72
2021/12/15 04:41:55;;;;;;;39.10;19.15;;;;;;;-0.62;90.33;101578.47;4421746;32;20081;-72
2021/12/15 04:44:28;;;;;;;46.55;19.50;;;;;;;-0.66;90.75;101581.69;4422424;32;20165;-72
2021/12/15 04:47:05;;;;;;;48.22;19.98;;;;;;;-0.56;90.36;101590.84;4422781;31;20098;-72
2021/12/15 04:49:42;;;;;;;45.95;19.23;;;;;;;-0.68;91.52;101582.41;4422423;32;20093;-72
2021/12/15 04:52:11;;;;;;;47.35;19.73;;;;;;;-0.72;92.27;101582.25;4422381;32;20081;-72
2021/12/15 04:54:39;;;;;;;42.58;20.92;;;;;;;-0.71;92.10;101583.13;4421438;32;20508;-72
2021/12/15 04:57:08;;;;;;;48.60;22.27;;;;;;;-0.46;90.21;101584.41;4421400;32;20097;-72
2021/12/15 04:59:35;;;;;;;48.33;21.90;;;;;;;-0.41;89.52;101580.38;4421438;32;20116;-72
2021/12/15 05:02:05;;;;;;;49.78;22.37;;;;;;;-0.49;89.82;101580.88;4418831;32;20098;-72
2021/12/15 05:04:33;;;;;;;51.28;22.08;;;;;;;-0.34;88.89;101580.78;4421056;31;20188;-72
2021/12/15 05:07:01;;;;;;;46.22;22.25;;;;;;;-0.21;88.23;101584.91;4421262;32;20196;-72
2021/12/15 05:09:28;;;;;;;40.03;20.83;;;;;;;-0.23;88.33;101593.37;4421068;32;20157;-72
2021/12/15 05:11:55;;;;;;;42.53;19.62;;;;;;;-0.21;88.53;101597.84;4422137;32;20094;-72
2021/12/15 05:14:24;;;;;;;44.42;20.33;;;;;;;-0.16;88.92;101605.84;4421199;32;20161;-72
2021/12/15 05:16:52;;;;;;;41.92;20.10;;;;;;;-0.15;88.21;101605.91;4419490;32;20132;-72
2021/12/15 05:19:21;;;;;;;42.75;21.20;;;;;;;-0.15;88.18;101611.09;4421255;32;20164;-72
2021/12/15 05:21:52;;;;;;;46.63;20.30;;;;;;;-0.18;88.75;101613.50;4421158;32;20128;-72
2021/12/15 05:27:06;;;;;;;39.53;19.73;;;;;;;-0.35;89.71;101607.50;4421079;32;20476;-72
2021/12/15 05:29:33;;;;;;;42.75;20.08;;;;;;;-0.34;90.13;101608.38;4421118;32;20149;-72
2021/12/15 05:32:02;;;;;;;41.83;19.65;;;;;;;-0.21;88.83;101608.19;4420985;32;20169;-72
2021/12/15 05:34:31;;;;;;;45.38;21.62;;;;;;;-0.35;89.33;101619.56;4420935;32;20105;-72
2021/12/15 05:36:58;;;;;;;40.35;18.50;;;;;;;-0.34;89.94;101623.91;4420081;32;20540;-72
2021/12/15 05:39:26;;;;;;;43.72;20.02;;;;;;;-0.28;89.88;101619.06;4420718;32;20142;-72
2021/12/15 05:41:53;;;;;;;46.63;19.48;;;;;;;-0.38;90.82;101620.28;4421024;32;20575;-72
2021/12/15 05:44:22;;;;;;;48.85;19.17;;;;;;;-0.21;90.02;101628.00;4421800;32;20713;-71
2021/12/15 05:46:53;;;;;;;43.25;18.92;;;;;;;-0.29;90.61;101625.91;4421715;32;20144;-72
2021/12/15 05:49:20;;;;;;;50.58;20.70;;;;;;;-0.35;90.75;101629.91;4421824;32;20108;-71
2021/12/15 05:51:48;;;;;;;42.42;19.37;;;;;;;-0.16;90.11;101640.41;4421595;32;20149;-71
2021/12/15 05:54:16;;;;;;;48.75;20.27;;;;;;;-0.10;89.83;101642.44;4421516;32;20101;-71
2021/12/15 05:56:43;;;;;;;44.72;20.92;;;;;;;-0.11;90.22;101646.69;4421711;32;20173;-73
2021/12/15 05:59:10;;;;;;;38.17;18.58;;;;;;;-0.29;91.06;101640.56;4421459;32;20758;-72
2021/12/15 06:01:38;;;;;;;39.30;19.20;;;;;;;-0.13;90.42;101640.56;4421268;32;20081;-72
2021/12/15 06:04:07;;;;;;;46.67;19.98;;;;;;;-0.02;89.82;101652.34;4420736;32;20117;-72
2021/12/15 06:06:34;;;;;;;43.78;19.23;;;;;;;0.09;89.31;101655.50;4421047;32;20109;-72
2021/12/15 06:09:11;;;;;;;43.40;19.02;;;;;;;0.12;88.93;101652.19;4421437;32;20902;-72
2021/12/15 06:11:40;;;;;;;44.60;19.67;;;;;;;0.01;89.12;101653.34;4433198;32;20153;-72
2021/12/15 06:14:07;;;;;;;57.00;21.70;;;;;;;0.00;89.40;101662.81;4436760;32;20680;-73
2021/12/15 06:16:37;;;;;;;54.05;21.20;;;;;;;0.06;89.46;101660.50;4416332;31;651021;-71
2021/12/15 06:19:05;;;;;;;62.10;24.08;;;;;;;0.14;89.12;101676.44;4436616;32;20175;-72
2021/12/15 06:21:32;;;;;;;65.57;28.05;;;;;;;0.21;88.57;101676.88;4436661;32;20124;-72
2021/12/15 06:23:59;;;;;;;79.90;28.83;;;;;;;0.17;88.45;101684.37;4435705;32;20102;-72
2021/12/15 06:26:27;;;;;;;74.72;29.02;;;;;;;0.10;88.28;101692.66;4435852;32;20897;-73
2021/12/15 06:28:54;;;;;;;70.00;31.87;;;;;;;0.07;88.61;101693.41;4435773;32;20077;-73
2021/12/15 06:31:23;;;;;;;84.15;30.95;;;;;;;0.06;88.68;101688.13;4435631;31;20528;-72
2021/12/15 06:33:51;;;;;;;70.32;27.45;;;;;;;-0.03;88.95;101688.56;4434869;32;20105;-73
2021/12/15 06:36:21;;;;;;;59.88;25.45;;;;;;;0.01;88.44;101682.72;4436149;32;20093;-73
2021/12/15 06:38:52;;;;;;;57.70;24.65;;;;;;;-0.08;88.84;101680.53;4434717;32;20089;-73
2021/12/15 06:41:21;;;;;;;58.78;25.17;;;;;;;-0.02;88.47;101686.03;4434651;32;20427;-73
2021/12/15 06:43:55;;;;;;;60.88;22.85;;;;;;;-0.12;89.33;101676.00;4435632;32;20097;-72
2021/12/15 06:58:10;;;;;;;50.60;21.43;;;;;;;0.43;85.55;101691.78;4435704;32;20180;-72
2021/12/15 07:00:24;;;;;;;44.15;23.17;;;;;;;0.38;85.92;101695.84;4434953;32;20108;-72
2021/12/15 07:02:52;;;;;;;48.60;22.37;;;;;;;0.36;86.01;101694.87;4434650;31;20097;-71
2021/12/15 07:05:22;;;;;;;52.62;23.85;;;;;;;0.37;86.57;101695.78;4434855;32;20089;-72
2021/12/15 07:07:51;;;;;;;54.83;24.12;;;;;;;0.45;86.05;101705.69;4433594;31;20460;-72
2021/12/15 07:10:29;;;;;;;50.95;24.77;;;;;;;0.42;86.71;101713.31;4435543;32;20156;-71
2021/12/15 07:12:58;;;;;;;52.58;23.33;;;;;;;0.45;87.03;101712.59;4427076;32;20077;-72
2021/12/15 07:15:26;;;;;;;57.97;24.55;;;;;;;0.54;88.28;101718.25;4420458;32;20158;-72
2021/12/15 07:18:01;;;;;;;72.87;26.52;;;;;;;0.53;88.20;101719.09;4422253;32;20206;-71
2021/12/15 07:22:58;;;;;;;85.68;30.80;;;;;;;0.80;87.33;101711.75;4419664;32;20561;-71
2021/12/15 07:25:27;;;;;;;82.80;28.98;;;;;;;0.68;87.18;101719.84;4426925;31;20101;-72
2021/12/15 07:27:56;;;;;;;79.37;29.37;;;;;;;0.75;87.18;101714.94;4485148;31;20172;-72
2021/12/15 07:30:23;;;;;;;84.45;30.45;;;;;;;0.43;89.05;101712.53;4484418;31;20441;-72
2021/12/15 07:32:50;;;;;;;83.20;27.75;;;;;;;0.34;90.66;101719.84;4484788;31;20463;-72
2021/12/15 07:35:19;;;;;;;74.43;28.10;;;;;;;0.39;90.11;101717.47;4484859;31;20592;-72
2021/12/15 07:37:47;;;;;;;82.50;29.30;;;;;;;0.55;88.71;101708.78;4477739;31;20165;-72
2021/12/15 07:40:21;;;;;;;81.57;28.35;;;;;;;0.62;88.04;101719.53;4480688;31;20448;-71
2021/12/15 07:43:13;;;;;;;89.50;29.80;;;;;;;0.69;88.15;101719.00;4485673;31;20133;-71
2021/12/15 07:45:50;;;;;;;80.95;28.75;;;;;;;0.81;86.90;101717.81;4485426;31;20552;-71
2021/12/15 07:48:19;;;;;;;84.25;29.27;;;;;;;0.77;86.86;101721.09;4484236;31;20544;-71
2021/12/15 07:50:50;;;;;;;72.53;26.35;;;;;;;0.81;86.50;101717.81;4485253;31;20110;-71
2021/12/15 07:53:18;;;;;;;80.03;30.92;;;;;;;0.79;86.83;101720.34;4484792;31;20148;-73
2021/12/15 07:55:47;;;;;;;83.32;31.55;;;;;;;0.69;87.28;101725.91;4469228;31;20097;-72
2021/12/15 07:58:18;;;;;;;90.75;32.15;;;;;;;0.69;87.85;101723.31;4469369;31;20172;-71
2021/12/15 08:00:47;;;;;;;84.35;33.42;;;;;;;0.59;88.49;101727.16;4471514;32;20148;-71
2021/12/15 08:03:16;;;;;;;86.28;32.72;;;;;;;0.59;88.89;101739.22;4470997;31;20457;-71
2021/12/15 08:05:46;;;;;;;84.25;31.45;;;;;;;0.61;88.52;101735.03;4470523;31;20510;-72
2021/12/15 08:08:14;;;;;;;91.22;31.17;;;;;;;0.76;87.58;101748.75;4480187;31;20095;-73
2021/12/15 08:10:42;;;;;;;86.35;32.35;;;;;;;0.80;87.61;101752.37;4485936;31;20099;-72
2021/12/15 08:13:11;;;;;;;81.12;31.67;;;;;;;0.87;87.71;101755.34;4485816;31;20192;-72
2021/12/15 08:15:39;;;;;;;74.35;30.00;;;;;;;1.02;86.95;101754.31;4486050;31;20099;-72
2021/12/15 08:18:06;;;;;;;81.05;31.90;;;;;;;1.06;87.22;101746.78;4486528;31;20127;-72
2021/12/15 08:20:36;;;;;;;85.95;34.53;;;;;;;1.15;86.69;101757.59;4485879;31;20092;-72
2021/12/15 08:23:05;;;;;;;92.95;33.42;;;;;;;1.12;87.59;101766.94;4486568;31;20156;-72
2021/12/15 08:25:34;;;;;;;96.82;33.75;;;;;;;1.01;89.12;101768.13;4475849;31;20556;-72
2021/12/15 08:28:03;;;;;;;93.22;36.08;;;;;;;1.16;89.15;101776.63;4429601;32;20508;-71
2021/12/15 08:30:32;;;;;;;103.25;37.78;;;;;;;1.54;88.86;101778.47;4429396;32;20092;-70
2021/12/15 08:33:03;;;;;;;90.10;37.17;;;;;;;1.48;88.39;101780.78;4437934;31;20093;-71
2021/12/15 08:35:41;;;;;;;97.72;36.00;;;;;;;1.49;88.10;101790.38;4437462;32;20089;-71
2021/12/15 08:38:12;;;;;;;102.80;37.85;;;;;;;1.84;85.87;101789.41;4437080;32;20085;-70
2021/12/15 08:40:40;;;;;;;82.30;34.00;;;;;;;1.87;85.81;101792.16;4429490;32;20093;-71
2021/12/15 08:43:08;;;;;;;92.60;36.40;;;;;;;1.97;85.14;101795.16;4428191;32;20502;-72
2021/12/15 08:45:42;;;;;;;79.87;33.65;;;;;;;1.74;86.42;101794.12;4427613;32;20529;-71
2021/12/15 08:48:10;;;;;;;96.68;35.15;;;;;;;2.07;84.96;101786.97;4425633;32;20401;-72
2021/12/15 08:50:41;;;;;;;84.68;33.33;;;;;;;2.17;84.20;101789.16;4431328;32;20168;-71
2021/12/15 08:53:11;;;;;;;84.00;32.70;;;;;;;2.25;84.57;101792.97;4430590;32;20112;-71
2021/12/15 08:55:45;;;;;;;87.53;35.47;;;;;;;2.26;84.70;101794.78;4426197;32;20133;-71
2021/12/15 08:58:14;;;;;;;81.68;33.85;;;;;;;2.28;85.06;101795.72;4431857;32;20105;-71
2021/12/15 09:00:50;;;;;;;84.55;33.17;;;;;;;2.50;83.41;101784.53;4424047;32;20089;-71
2021/12/15 09:03:20;;;;;;;86.45;33.20;;;;;;;2.63;83.44;101792.06;4434769;32;20135;-72
2021/12/15 09:05:52;;;;;;;78.80;30.67;;;;;;;2.59;83.54;101795.34;4435203;32;20435;-72
2021/12/15 09:08:23;;;;;;;77.00;32.40;;;;;;;2.90;81.74;101782.72;4435583;32;20085;-72
2021/12/15 09:10:53;;;;;;;83.43;32.28;;;;;;;2.85;82.35;101792.97;4420012;32;20145;-70
2021/12/15 09:13:21;;;;;;;89.78;32.88;;;;;;;2.92;82.15;101789.78;4435431;32;20142;-71
2021/12/15 09:15:51;;;;;;;88.40;34.53;;;;;;;3.18;81.28;101788.28;4435376;31;20124;-71
2021/12/15 09:18:19;;;;;;;84.97;35.22;;;;;;;3.09;81.22;101785.28;4436120;32;20119;-71
2021/12/15 09:20:46;;;;;;;87.70;34.63;;;;;;;3.11;81.96;101778.44;4435190;32;20161;-71
2021/12/15 09:23:17;;;;;;;83.90;34.95;;;;;;;3.27;81.84;101777.31;4432679;31;20416;-73
2021/12/15 09:25:47;;;;;;;85.93;35.10;;;;;;;3.54;80.81;101780.16;4434763;32;20594;-71
2021/12/15 09:28:15;;;;;;;92.43;34.03;;;;;;;3.69;80.51;101772.91;4434386;32;20109;-71
2021/12/15 09:30:46;;;;;;;94.45;38.03;;;;;;;3.86;80.87;101781.38;4435107;31;20505;-71
2021/12/15 09:33:20;;;;;;;85.65;36.75;;;;;;;4.07;79.90;101776.94;4429265;32;20119;-72
2021/12/15 09:35:47;;;;;;;85.68;35.50;;;;;;;4.09;79.23;101774.38;4427855;32;20482;-73
2021/12/15 09:38:17;;;;;;;81.25;33.67;;;;;;;4.14;80.12;101766.75;4431373;32;20136;-70
2021/12/15 09:40:44;;;;;;;77.85;35.03;;;;;;;4.29;79.46;101762.06;4421929;32;20085;-70
2021/12/15 09:43:12;;;;;;;81.32;35.83;;;;;;;4.52;78.89;101766.41;4421807;32;20458;-70
2021/12/15 09:45:52;;;;;;;85.65;35.38;;;;;;;4.90;78.78;101760.69;4427180;32;20139;-70
2021/12/15 10:19:28;;;;;;;73.45;32.88;;;;;;;5.27;77.03;101776.72;4421517;32;20094;-69
2021/12/15 10:22:26;;;;;;;75.40;33.67;;;;;;;6.17;74.18;101775.97;4427181;32;21385;-68
2021/12/15 10:24:58;;;;;;;74.53;32.67;;;;;;;6.39;72.96;101766.97;4423520;32;20082;-70
2021/12/15 10:27:34;;;;;;;89.90;34.67;;;;;;;6.86;71.66;101771.72;4430267;32;20571;-69
2021/12/15 10:30:10;;;;;;;83.22;35.60;;;;;;;7.08;72.12;101768.78;4426683;32;20082;-70
2021/12/15 10:32:41;;;;;;;78.37;35.85;;;;;;;7.50;68.04;101778.53;4427917;32;20721;-70
2021/12/15 10:35:21;;;;;;;78.78;35.50;;;;;;;7.96;67.46;101769.03;4426812;32;20116;-70
2021/12/15 10:38:07;;;;;;;68.10;34.40;;;;;;;8.40;65.55;101778.69;4429489;32;20094;-70
2021/12/15 10:40:50;;;;;;;78.32;34.13;;;;;;;9.22;63.67;101781.88;4430549;32;20626;-70
2021/12/15 10:43:20;;;;;;;73.28;34.15;;;;;;;8.81;63.17;101777.72;4436752;32;20089;-70
2021/12/15 10:45:52;;;;;;;68.05;32.95;;;;;;;9.12;61.29;101787.84;4422720;32;20147;-70
2021/12/15 10:48:36;;;;;;;74.60;33.88;;;;;;;9.06;63.39;101784.28;4421036;32;20145;-70
2021/12/15 10:51:25;;;;;;;73.65;34.33;;;;;;;9.60;61.18;101782.47;4422240;32;20115;-70
2021/12/15 10:53:56;;;;;;;68.40;34.20;;;;;;;10.70;58.32;101775.06;4436486;32;20135;-70
2021/12/15 10:56:27;;;;;;;62.67;33.05;;;;;;;10.88;56.17;101777.88;4422453;32;20161;-70
2021/12/15 10:59:00;;;;;;;68.00;34.65;;;;;;;10.31;57.29;101775.53;4427076;32;20785;-71
2021/12/15 11:01:42;;;;;;;67.97;35.28;;;;;;;10.86;57.15;101778.75;4436253;32;20105;-69
2021/12/15 11:04:20;;;;;;;68.75;34.55;;;;;;;10.88;56.29;101780.50;4421301;32;20093;-70
2021/12/15 11:07:15;;;;;;;68.60;37.05;;;;;;;10.85;57.18;101777.88;4420879;32;20684;-71
2021/12/15 11:09:42;;;;;;;71.03;36.80;;;;;;;10.46;56.78;101776.59;4435609;32;20070;-70
2021/12/15 11:12:16;;;;;;;65.32;34.00;;;;;;;10.19;58.54;101774.50;4436129;32;20496;-70
2021/12/15 11:14:47;;;;;;;68.20;36.95;;;;;;;10.77;56.60;101774.25;4436330;32;20104;-70
2021/12/15 11:17:28;;;;;;;62.65;35.03;;;;;;;10.53;56.68;101774.91;4436444;32;20085;-71
2021/12/15 11:20:11;;;;;;;65.15;33.97;;;;;;;9.89;59.72;101777.62;4435914;32;20145;-71
2021/12/15 11:22:48;;;;;;;61.83;34.03;;;;;;;10.47;58.50;101780.13;4436185;32;20799;-70
2021/12/15 11:25:29;;;;;;;65.05;33.67;;;;;;;10.81;57.89;101776.06;4435880;32;20113;-70
2021/12/15 11:28:23;;;;;;;69.18;34.53;;;;;;;11.13;55.73;101767.53;4433598;32;20333;-70
2021/12/15 11:31:01;;;;;;;58.87;32.90;;;;;;;10.76;56.29;101765.47;4427113;32;20751;-69
2021/12/15 11:34:02;;;;;;;65.60;34.53;;;;;;;11.48;56.23;101770.44;4420140;32;20094;-71
2021/12/15 11:36:44;;;;;;;62.83;34.70;;;;;;;10.90;54.48;101772.63;4422561;32;20120;-71
2021/12/15 11:39:16;;;;;;;65.28;35.13;;;;;;;10.36;57.12;101769.47;4422743;32;20096;-69
2021/12/15 11:41:47;;;;;;;66.40;36.55;;;;;;;9.62;59.26;101770.25;4422565;32;20138;-69
2021/12/15 11:44:19;;;;;;;65.30;35.55;;;;;;;9.73;60.29;101773.03;4422737;32;20149;-70
2021/12/15 11:47:02;;;;;;;66.43;35.08;;;;;;;9.37;60.81;101778.66;4422838;32;20085;-70
2021/12/15 11:49:36;;;;;;;59.20;32.03;;;;;;;9.34;61.20;101768.94;4424076;32;20093;-69
2021/12/15 11:52:06;;;;;;;58.72;32.10;;;;;;;9.40;61.45;101769.06;4429887;32;20074;-70
2021/12/15 11:54:35;;;;;;;62.38;31.67;;;;;;;8.89;62.63;101763.81;4422655;32;20751;-70
2021/12/15 11:57:24;;;;;;;59.17;33.17;;;;;;;8.78;64.04;101771.53;4423092;32;20115;-70
2021/12/15 12:00:03;;;;;;;66.35;34.20;;;;;;;8.36;64.56;101760.22;4428640;32;20098;-71
2021/12/15 12:02:39;;;;;;;56.25;31.45;;;;;;;8.06;65.86;101763.13;4427235;32;20192;-70
2021/12/15 12:05:14;;;;;;;62.92;30.85;;;;;;;7.80;66.00;101764.31;4422281;32;20773;-70
2021/12/15 12:07:55;;;;;;;55.20;29.75;;;;;;;7.82;66.78;101762.63;4433252;32;20161;-69
2021/12/15 12:10:47;;;;;;;53.55;30.10;;;;;;;7.64;67.84;101752.59;4436790;32;20137;-69
2021/12/15 12:13:22;;;;;;;55.28;28.80;;;;;;;7.61;67.85;101749.91;4437110;32;20685;-69
2021/12/15 12:15:58;;;;;;;49.80;27.13;;;;;;;7.39;68.85;101756.41;4436044;32;20090;-69
2021/12/15 12:18:31;;;;;;;53.50;28.77;;;;;;;7.16;69.93;101759.37;4429386;32;20164;-69
2021/12/15 12:21:09;;;;;;;56.15;29.00;;;;;;;7.18;70.47;101749.81;4427943;32;20520;-69
2021/12/15 12:23:39;;;;;;;60.63;32.45;;;;;;;7.13;71.02;101753.16;4422737;32;20236;-69
2021/12/15 12:26:09;;;;;;;62.92;30.25;;;;;;;6.94;71.90;101754.47;4420201;32;20090;-69
2021/12/15 12:28:41;;;;;;;51.17;28.98;;;;;;;7.11;71.61;101753.13;4419961;32;20131;-69
2021/12/15 12:31:12;;;;;;;54.90;29.50;;;;;;;7.09;71.70;101749.59;4420095;32;20085;-69
2021/12/15 12:33:40;;;;;;;58.55;27.42;;;;;;;7.07;71.88;101755.66;4425590;32;20116;-70
2021/12/15 12:36:14;;;;;;;52.88;27.48;;;;;;;7.03;71.96;101748.53;4424412;32;20128;-70
2021/12/15 12:38:52;;;;;;;55.70;26.37;;;;;;;7.15;71.66;101752.34;4418770;32;20523;-69
2021/12/15 12:41:42;;;;;;;58.63;28.62;;;;;;;7.14;71.85;101758.47;4428173;32;20417;-69
2021/12/15 12:44:12;;;;;;;52.78;27.90;;;;;;;6.83;73.04;101763.78;4437264;32;20081;-70
2021/12/15 12:46:56;;;;;;;61.60;29.45;;;;;;;6.63;73.76;101758.91;4431407;32;20105;-70
2021/12/15 13:01:13;;;;;;;63.50;29.40;;;;;;;5.93;76.98;101749.09;4422212;32;20085;-70
2021/12/15 13:03:53;;;;;;;56.75;28.35;;;;;;;5.84;77.51;101749.72;4413967;32;20845;-71
2021/12/15 13:06:25;;;;;;;53.90;27.33;;;;;;;5.84;77.83;101754.06;4421524;32;20093;-71